createdAt,value
2022-10-19T00:00:18.330Z,50.03
2022-10-19T00:01:24.450Z,49.26
2022-10-19T00:02:26.258Z,49.71
2022-10-19T00:03:28.849Z,49.29
2022-10-19T00:04:30.557Z,50.57
2022-10-19T00:05:32.228Z,49.83
2022-10-19T00:06:36.343Z,50.46
2022-10-19T00:07:38.021Z,50.11
2022-10-19T00:08:39.673Z,50.33
2022-10-19T00:09:43.637Z,50.16
2022-10-19T00:10:45.321Z,50.44
2022-10-19T00:11:49.695Z,50.35
2022-10-19T00:12:51.368Z,50.26
2022-10-19T00:13:54.606Z,50.15
2022-10-19T00:14:56.977Z,50.80
2022-10-19T00:15:58.603Z,51.18
2022-10-19T00:17:00.386Z,51.31
2022-10-19T00:18:02.156Z,50.82
2022-10-19T00:19:08.505Z,51.06
2022-10-19T00:20:11.264Z,50.94
2022-10-19T00:21:15.689Z,51.34
2022-10-19T00:22:17.333Z,51.11
2022-10-19T00:23:18.971Z,51.94
2022-10-19T00:24:20.849Z,52.16
2022-10-19T00:25:22.539Z,51.77
2022-10-19T00:26:24.222Z,51.43
2022-10-19T00:27:25.913Z,52.21
2022-10-19T00:28:27.668Z,52.23
2022-10-19T00:29:29.385Z,52.51
2022-10-19T00:30:31.085Z,52.46
2022-10-19T00:31:33.101Z,52.21
2022-10-19T00:32:35.071Z,52.99
2022-10-19T00:33:37.100Z,52.41
2022-10-19T00:34:38.812Z,53.26
2022-10-19T00:35:41.088Z,52.33
2022-10-19T00:36:42.833Z,52.31
2022-10-19T00:37:44.485Z,52.41
2022-10-19T00:38:46.658Z,51.93
2022-10-19T00:39:48.452Z,52.31
2022-10-19T00:40:50.190Z,52.72
2022-10-19T00:41:51.904Z,53.08
2022-10-19T00:42:57.212Z,53.00
2022-10-19T00:44:06.382Z,52.68
2022-10-19T00:45:15.117Z,52.01
2022-10-19T00:46:16.915Z,53.04
2022-10-19T00:47:23.540Z,52.87
2022-10-19T00:48:31.898Z,52.60
2022-10-19T00:49:41.601Z,52.56
2022-10-19T00:50:44.398Z,52.88
2022-10-19T00:51:50.160Z,53.14
2022-10-19T00:52:51.857Z,52.67
2022-10-19T00:53:54.912Z,53.25
2022-10-19T00:54:58.151Z,52.37
2022-10-19T00:56:05.473Z,52.90
2022-10-19T00:57:08.269Z,51.74
2022-10-19T00:58:10.191Z,51.53
2022-10-19T00:59:15.174Z,51.92
2022-10-19T01:00:16.883Z,51.45
2022-10-19T01:01:22.284Z,51.25
2022-10-19T01:02:24.106Z,50.83
2022-10-19T01:03:26.139Z,51.22
2022-10-19T01:04:29.200Z,51.43
2022-10-19T01:05:32.591Z,50.72
2022-10-19T01:06:35.321Z,51.20
2022-10-19T01:07:37.236Z,50.58
2022-10-19T01:08:39.270Z,50.19
2022-10-19T01:09:40.906Z,50.31
2022-10-19T01:10:53.060Z,50.64
2022-10-19T01:12:14.164Z,50.50
2022-10-19T01:13:35.631Z,50.48
2022-10-19T01:14:55.663Z,50.59
2022-10-19T01:16:21.422Z,50.93
2022-10-19T01:17:28.986Z,50.89
2022-10-19T01:18:45.421Z,50.33
2022-10-19T01:20:02.151Z,50.66
2022-10-19T01:21:30.273Z,50.88
2022-10-19T01:22:31.970Z,52.39
2022-10-19T01:24:11.541Z,51.64
2022-10-19T01:25:21.979Z,52.01
2022-10-19T01:26:47.752Z,51.99
2022-10-19T01:28:17.646Z,51.75
2022-10-19T01:29:42.181Z,51.40
2022-10-19T01:31:12.571Z,51.48
2022-10-19T01:32:23.619Z,52.03
2022-10-19T01:33:46.763Z,52.60
2022-10-19T01:34:55.473Z,52.77
2022-10-19T01:36:15.119Z,53.11
2022-10-19T01:37:29.701Z,52.90
2022-10-19T01:38:50.588Z,53.47
2022-10-19T01:40:06.531Z,53.46
2022-10-19T01:41:34.816Z,52.88
2022-10-19T01:42:46.694Z,52.82
2022-10-19T01:44:01.660Z,53.65
2022-10-19T01:45:11.812Z,53.55
2022-10-19T01:46:25.139Z,53.94
2022-10-19T01:47:36.064Z,54.36
2022-10-19T01:48:41.107Z,55.31
2022-10-19T01:49:49.279Z,55.30
2022-10-19T01:50:57.910Z,55.53
2022-10-19T01:52:05.775Z,55.15
2022-10-19T01:53:10.443Z,55.28
2022-10-19T01:54:15.549Z,54.78
2022-10-19T01:55:19.197Z,55.47
2022-10-19T01:56:25.926Z,54.73
2022-10-19T01:57:40.776Z,54.88
2022-10-19T01:58:45.177Z,54.98
2022-10-19T01:59:49.406Z,54.88
2022-10-19T02:00:53.676Z,55.59
2022-10-19T02:01:56.192Z,54.72
2022-10-19T02:02:59.123Z,54.98
2022-10-19T02:04:02.510Z,55.55
2022-10-19T02:05:06.118Z,55.56
2022-10-19T02:06:10.116Z,55.17
2022-10-19T02:07:11.890Z,55.62
2022-10-19T02:08:28.964Z,55.95
2022-10-19T02:09:30.825Z,55.94
2022-10-19T02:10:35.445Z,55.73
2022-10-19T02:11:38.073Z,55.43
2022-10-19T02:12:41.821Z,55.41
2022-10-19T02:13:45.168Z,54.73
2022-10-19T02:14:51.058Z,54.52
2022-10-19T02:15:56.466Z,54.55
2022-10-19T02:17:03.448Z,54.43
2022-10-19T02:18:07.330Z,54.60
2022-10-19T02:19:11.366Z,54.07
2022-10-19T02:20:14.045Z,53.31
2022-10-19T02:21:15.765Z,53.34
2022-10-19T02:22:17.499Z,52.91
2022-10-19T02:23:22.223Z,53.20
2022-10-19T02:24:24.051Z,53.50
2022-10-19T02:25:26.421Z,52.97
2022-10-19T02:26:28.355Z,53.06
2022-10-19T02:27:30.161Z,53.10
2022-10-19T02:28:32.501Z,53.34
2022-10-19T02:29:36.882Z,53.32
2022-10-19T02:30:38.590Z,53.13
2022-10-19T02:31:40.302Z,52.87
2022-10-19T02:32:43.514Z,52.32
2022-10-19T02:33:45.399Z,52.68
2022-10-19T02:34:47.044Z,52.25
2022-10-19T02:35:48.972Z,52.01
2022-10-19T02:36:50.974Z,51.91
2022-10-19T02:37:52.662Z,51.79
2022-10-19T02:38:54.490Z,51.76
2022-10-19T02:39:56.405Z,51.02
2022-10-19T02:41:07.134Z,51.35
2022-10-19T02:42:25.105Z,51.78
2022-10-19T02:43:29.101Z,53.06
2022-10-19T02:44:47.383Z,52.65
2022-10-19T02:46:00.400Z,52.28
2022-10-19T02:47:06.879Z,52.78
2022-10-19T02:48:13.424Z,51.69
2022-10-19T02:49:15.904Z,52.13
2022-10-19T02:50:19.698Z,51.50
2022-10-19T02:51:48.405Z,52.14
2022-10-19T02:52:50.291Z,51.48
2022-10-19T02:53:51.939Z,51.45
2022-10-19T02:54:53.604Z,51.80
2022-10-19T02:55:55.248Z,51.34
2022-10-19T02:56:57.018Z,52.36
2022-10-19T02:57:58.730Z,52.43
2022-10-19T02:59:00.888Z,52.39
2022-10-19T03:00:04.595Z,52.66
2022-10-19T03:01:06.424Z,53.03
2022-10-19T03:02:08.129Z,53.58
2022-10-19T03:03:10.505Z,53.55
2022-10-19T03:04:12.149Z,53.85
2022-10-19T03:05:13.900Z,53.78
2022-10-19T03:06:15.639Z,54.05
2022-10-19T03:07:19.143Z,54.80
2022-10-19T03:08:20.828Z,55.22
2022-10-19T03:09:22.662Z,55.13
2022-10-19T03:10:24.428Z,55.30
2022-10-19T03:11:26.212Z,55.94
2022-10-19T03:12:27.963Z,56.29
2022-10-19T03:13:29.611Z,56.58
2022-10-19T03:14:31.235Z,56.95
2022-10-19T03:15:32.862Z,56.90
2022-10-19T03:16:34.544Z,56.47
2022-10-19T03:17:36.422Z,56.61
2022-10-19T03:18:38.389Z,55.86
2022-10-19T03:19:40.169Z,55.95
2022-10-19T03:20:41.846Z,55.74
2022-10-19T03:21:43.517Z,55.36
2022-10-19T03:22:45.191Z,55.75
2022-10-19T03:23:46.869Z,55.50
2022-10-19T03:24:48.554Z,55.75
2022-10-19T03:25:50.187Z,55.70
2022-10-19T03:26:51.874Z,56.19
2022-10-19T03:27:53.524Z,56.27
2022-10-19T03:28:55.176Z,56.15
2022-10-19T03:29:56.877Z,56.07
2022-10-19T03:30:58.558Z,55.67
2022-10-19T03:32:00.180Z,56.47
2022-10-19T03:33:01.813Z,56.03
2022-10-19T03:34:03.639Z,55.82
2022-10-19T03:35:05.827Z,55.55
2022-10-19T03:36:38.863Z,55.65
2022-10-19T03:37:40.489Z,56.05
2022-10-19T03:38:42.274Z,56.41
2022-10-19T03:39:43.942Z,55.89
2022-10-19T03:40:45.577Z,56.44
2022-10-19T03:41:47.334Z,56.65
2022-10-19T03:42:48.972Z,56.34
2022-10-19T03:43:50.799Z,56.37
2022-10-19T03:44:52.566Z,56.59
2022-10-19T03:45:54.204Z,57.14
2022-10-19T03:46:55.868Z,57.03
2022-10-19T03:47:57.535Z,56.80
2022-10-19T03:48:59.605Z,57.27
2022-10-19T03:50:01.289Z,57.23
2022-10-19T03:51:06.233Z,56.93
2022-10-19T03:52:10.205Z,56.61
2022-10-19T03:53:11.945Z,57.08
2022-10-19T03:54:15.722Z,56.96
2022-10-19T03:55:18.089Z,56.91
2022-10-19T03:56:22.873Z,57.00
2022-10-19T03:57:24.581Z,57.21
2022-10-19T03:58:26.241Z,57.77
2022-10-19T03:59:27.993Z,57.48
2022-10-19T04:00:29.675Z,57.70
2022-10-19T04:01:31.425Z,57.25
2022-10-19T04:02:33.267Z,57.08
2022-10-19T04:04:37.504Z,58.02
2022-10-19T04:05:39.146Z,58.00
2022-10-19T04:06:43.630Z,57.83
2022-10-19T04:07:45.278Z,58.24
2022-10-19T04:08:49.072Z,58.20
2022-10-19T04:09:50.732Z,57.65
2022-10-19T04:10:52.758Z,57.50
2022-10-19T04:11:54.428Z,57.81
2022-10-19T04:12:56.064Z,57.37
2022-10-19T04:13:58.704Z,57.76
2022-10-19T04:15:00.425Z,58.35
2022-10-19T04:16:02.291Z,58.03
2022-10-19T04:17:04.842Z,57.91
2022-10-19T04:18:06.568Z,58.54
2022-10-19T04:19:09.200Z,58.13
2022-10-19T04:20:11.279Z,58.31
2022-10-19T04:21:40.578Z,58.52
2022-10-19T04:22:42.218Z,57.52
2022-10-19T04:23:43.851Z,57.80
2022-10-19T04:24:45.588Z,57.24
2022-10-19T04:25:47.226Z,57.84
2022-10-19T04:26:51.360Z,57.84
2022-10-19T04:27:53.009Z,57.90
2022-10-19T04:28:58.688Z,58.74
2022-10-19T04:30:00.465Z,57.97
2022-10-19T04:31:03.930Z,58.47
2022-10-19T04:32:05.823Z,58.48
2022-10-19T04:33:07.526Z,58.07
2022-10-19T04:34:09.320Z,58.07
2022-10-19T04:35:10.936Z,58.48
2022-10-19T04:36:13.013Z,57.74
2022-10-19T04:37:14.686Z,58.27
2022-10-19T04:38:16.358Z,58.48
2022-10-19T04:39:18.001Z,58.89
2022-10-19T04:40:19.649Z,58.64
2022-10-19T04:41:22.330Z,58.67
2022-10-19T04:42:23.966Z,58.12
2022-10-19T04:43:25.596Z,57.73
2022-10-19T04:44:27.259Z,58.44
2022-10-19T04:45:28.991Z,58.61
2022-10-19T04:46:30.939Z,58.29
2022-10-19T04:47:32.884Z,58.47
2022-10-19T04:48:36.412Z,58.09
2022-10-19T04:49:38.049Z,57.77
2022-10-19T04:50:39.820Z,58.23
2022-10-19T04:51:41.449Z,58.43
2022-10-19T04:52:45.342Z,58.58
2022-10-19T04:53:47.696Z,59.10
2022-10-19T04:54:49.358Z,58.55
2022-10-19T04:55:51.139Z,57.96
2022-10-19T04:56:54.032Z,57.65
2022-10-19T04:57:55.752Z,58.46
2022-10-19T04:58:58.910Z,58.51
2022-10-19T05:00:00.553Z,58.60
2022-10-19T05:01:20.462Z,59.00
2022-10-19T05:02:22.115Z,59.03
2022-10-19T05:03:23.852Z,58.75
2022-10-19T05:04:25.484Z,58.51
2022-10-19T05:05:27.176Z,58.69
2022-10-19T05:06:30.757Z,59.23
2022-10-19T05:07:32.723Z,59.21
2022-10-19T05:08:35.379Z,59.47
2022-10-19T05:09:40.431Z,59.85
2022-10-19T05:10:44.289Z,59.93
2022-10-19T05:11:50.832Z,60.18
2022-10-19T05:12:52.711Z,59.79
2022-10-19T05:13:55.902Z,59.64
2022-10-19T05:14:57.546Z,60.18
2022-10-19T05:16:01.544Z,60.18
2022-10-19T05:17:03.234Z,59.94
2022-10-19T05:18:04.942Z,59.48
2022-10-19T05:19:06.606Z,59.22
2022-10-19T05:20:08.865Z,59.87
2022-10-19T05:21:13.125Z,59.51
2022-10-19T05:22:14.823Z,59.38
2022-10-19T05:23:16.701Z,59.86
2022-10-19T05:24:18.384Z,59.37
2022-10-19T05:25:20.118Z,58.98
2022-10-19T05:26:24.406Z,59.23
2022-10-19T05:27:26.140Z,59.61
2022-10-19T05:28:28.250Z,59.66
2022-10-19T05:29:30.306Z,60.06
2022-10-19T05:30:32.649Z,59.50
2022-10-19T05:31:34.948Z,59.61
2022-10-19T05:32:36.585Z,59.09
2022-10-19T05:33:39.123Z,58.68
2022-10-19T05:34:40.772Z,57.43
2022-10-19T05:35:42.436Z,56.57
2022-10-19T05:36:44.107Z,57.24
2022-10-19T05:37:45.770Z,57.40
2022-10-19T05:38:49.618Z,57.11
2022-10-19T05:39:51.572Z,57.34
2022-10-19T05:40:53.638Z,56.29
2022-10-19T05:41:55.529Z,56.46
2022-10-19T05:42:57.186Z,56.37
2022-10-19T05:44:00.699Z,56.80
2022-10-19T05:45:02.416Z,56.40
2022-10-19T05:46:06.288Z,55.98
2022-10-19T05:47:07.992Z,55.20
2022-10-19T05:48:09.650Z,54.96
2022-10-19T05:49:12.838Z,54.91
2022-10-19T05:50:14.516Z,53.20
2022-10-19T05:51:19.805Z,53.91
2022-10-19T05:52:21.542Z,53.00
2022-10-19T05:53:23.182Z,52.54
2022-10-19T05:54:27.740Z,52.68
2022-10-19T05:55:34.770Z,52.85
2022-10-19T05:56:36.587Z,52.25
2022-10-19T05:57:38.269Z,52.12
2022-10-19T05:58:40.025Z,52.23
2022-10-19T05:59:42.251Z,52.73
2022-10-19T06:00:43.913Z,52.75
2022-10-19T06:01:46.152Z,51.79
2022-10-19T06:02:47.832Z,51.80
2022-10-19T06:03:54.646Z,52.25
2022-10-19T06:04:56.288Z,53.21
2022-10-19T06:05:58.470Z,51.70
2022-10-19T06:07:01.307Z,52.68
2022-10-19T06:08:03.100Z,51.56
2022-10-19T06:09:04.847Z,51.49
2022-10-19T06:10:06.899Z,50.93
2022-10-19T06:11:11.964Z,51.73
2022-10-19T06:12:15.818Z,51.97
2022-10-19T06:13:19.974Z,52.53
2022-10-19T06:14:21.666Z,52.72
2022-10-19T06:15:23.358Z,52.10
2022-10-19T06:16:27.000Z,52.86
2022-10-19T06:17:29.499Z,52.58
2022-10-19T06:18:31.207Z,51.61
2022-10-19T06:19:32.845Z,51.63
2022-10-19T06:20:36.066Z,51.93
2022-10-19T06:21:39.608Z,51.85
2022-10-19T06:22:43.653Z,50.38
2022-10-19T06:23:45.545Z,49.89
2022-10-19T06:24:47.207Z,50.15
2022-10-19T06:25:48.890Z,50.86
2022-10-19T06:26:50.559Z,50.55
2022-10-19T06:27:53.207Z,50.37
2022-10-19T06:28:59.323Z,50.21
2022-10-19T06:30:00.964Z,49.06
2022-10-19T06:31:05.875Z,48.74
2022-10-19T06:32:08.934Z,49.67
2022-10-19T06:33:10.625Z,49.86
2022-10-19T06:34:12.403Z,48.67
2022-10-19T06:35:14.263Z,49.58
2022-10-19T06:36:24.334Z,49.71
2022-10-19T06:37:25.996Z,51.39
2022-10-19T06:38:27.736Z,51.76
2022-10-19T06:39:29.414Z,52.23
2022-10-19T06:40:31.439Z,53.09
2022-10-19T06:41:34.647Z,52.05
2022-10-19T06:42:39.337Z,52.75
2022-10-19T06:43:43.147Z,50.90
2022-10-19T06:44:44.940Z,51.18
2022-10-19T06:45:46.620Z,51.88
2022-10-19T06:46:48.430Z,50.23
2022-10-19T06:47:50.147Z,51.04
2022-10-19T06:48:51.766Z,49.35
2022-10-19T06:49:53.405Z,48.74
2022-10-19T06:51:06.266Z,46.33
2022-10-19T06:52:08.367Z,44.18
2022-10-19T06:53:10.131Z,44.32
2022-10-19T06:54:11.879Z,42.86
2022-10-19T06:55:13.783Z,40.52
2022-10-19T06:56:15.766Z,40.45
2022-10-19T06:57:17.444Z,39.54
2022-10-19T06:58:19.112Z,37.96
2022-10-19T06:59:20.811Z,38.55
2022-10-19T07:00:22.483Z,36.42
2022-10-19T07:01:24.719Z,34.81
2022-10-19T07:02:26.488Z,33.41
2022-10-19T07:03:29.938Z,32.36
2022-10-19T07:04:31.565Z,32.83
2022-10-19T07:05:33.194Z,31.45
2022-10-19T07:06:34.907Z,30.90
2022-10-19T07:07:37.204Z,31.49
2022-10-19T07:08:41.058Z,29.13
2022-10-19T07:09:42.727Z,31.32
2022-10-19T07:10:44.384Z,29.87
2022-10-19T07:11:46.369Z,30.29
2022-10-19T07:12:48.067Z,30.12
2022-10-19T07:13:50.590Z,29.34
2022-10-19T07:14:52.558Z,29.09
2022-10-19T07:16:15.956Z,28.44
2022-10-19T07:17:21.709Z,27.33
2022-10-19T07:18:23.359Z,27.84
2022-10-19T07:19:28.987Z,29.11
2022-10-19T07:20:30.675Z,27.85
2022-10-19T07:21:32.405Z,26.79
2022-10-19T07:22:34.093Z,26.29
2022-10-19T07:23:37.667Z,25.93
2022-10-19T07:24:39.345Z,26.56
2022-10-19T07:25:41.026Z,26.84
2022-10-19T07:26:42.730Z,27.17
2022-10-19T07:27:44.505Z,26.22
2022-10-19T07:28:47.928Z,27.29
2022-10-19T07:29:49.687Z,26.20
2022-10-19T07:30:51.393Z,23.24
2022-10-19T07:31:53.495Z,24.29
2022-10-19T07:32:55.137Z,24.78
2022-10-19T07:34:01.711Z,24.78
2022-10-19T07:35:03.577Z,25.15
2022-10-19T07:36:08.284Z,25.42
2022-10-19T07:37:10.046Z,24.81
2022-10-19T07:38:11.680Z,23.19
2022-10-19T07:39:13.931Z,23.36
2022-10-19T07:40:15.576Z,23.06
2022-10-19T07:41:19.585Z,22.75
2022-10-19T07:43:23.812Z,22.77
2022-10-19T07:44:25.486Z,22.05
2022-10-19T07:45:27.238Z,22.31
2022-10-19T07:46:33.542Z,21.23
2022-10-19T07:47:35.470Z,21.68
2022-10-19T07:48:37.485Z,21.53
2022-10-19T07:49:40.015Z,22.24
2022-10-19T07:50:41.681Z,22.08
2022-10-19T07:51:43.550Z,21.86
2022-10-19T07:52:45.218Z,21.33
2022-10-19T07:53:47.146Z,19.67
2022-10-19T07:54:49.707Z,20.26
2022-10-19T07:55:51.396Z,22.54
2022-10-19T07:56:53.140Z,22.58
2022-10-19T07:57:55.347Z,21.15
2022-10-19T07:58:59.348Z,22.48
2022-10-19T08:00:00.995Z,21.80
2022-10-19T08:01:05.264Z,20.42
2022-10-19T08:02:16.002Z,21.10
2022-10-19T08:06:08.192Z,20.65
2022-10-19T08:07:10.909Z,21.34
2022-10-19T08:08:12.565Z,20.84
2022-10-19T08:09:27.997Z,23.64
2022-10-19T08:10:36.846Z,21.36
2022-10-19T08:11:38.661Z,20.83
2022-10-19T08:12:40.396Z,20.72
2022-10-19T08:13:42.931Z,20.10
2022-10-19T08:14:44.577Z,20.76
2022-10-19T08:15:46.243Z,18.90
2022-10-19T08:16:47.961Z,19.01
2022-10-19T08:17:49.653Z,20.01
2022-10-19T08:18:52.883Z,18.56
2022-10-19T08:19:54.531Z,19.90
2022-10-19T08:20:56.487Z,19.61
2022-10-19T08:21:58.142Z,18.66
2022-10-19T08:23:00.377Z,18.61
2022-10-19T08:24:02.148Z,19.78
2022-10-19T08:25:04.095Z,20.22
2022-10-19T08:26:06.015Z,20.61
2022-10-19T08:27:07.718Z,17.90
2022-10-19T08:28:09.418Z,18.09
2022-10-19T08:29:13.997Z,18.39
2022-10-19T08:30:15.689Z,18.65
2022-10-19T08:31:22.933Z,19.40
2022-10-19T08:32:24.650Z,17.96
2022-10-19T08:33:26.674Z,19.07
2022-10-19T08:34:28.402Z,18.24
2022-10-19T08:35:31.588Z,17.21
2022-10-19T08:36:35.700Z,19.10
2022-10-19T08:37:45.322Z,17.96
2022-10-19T08:38:48.829Z,18.78
2022-10-19T08:39:50.490Z,18.03
2022-10-19T08:40:52.258Z,18.17
2022-10-19T08:41:53.869Z,18.43
2022-10-19T08:43:05.104Z,19.38
2022-10-19T08:44:28.372Z,18.29
2022-10-19T08:45:56.670Z,17.74
2022-10-19T08:47:19.753Z,16.44
2022-10-19T08:48:24.107Z,16.32
2022-10-19T08:49:28.759Z,17.05
2022-10-19T08:50:38.660Z,17.71
2022-10-19T08:51:42.286Z,16.83
2022-10-19T08:52:50.403Z,16.12
2022-10-19T08:53:56.189Z,17.15
2022-10-19T08:55:01.286Z,15.72
2022-10-19T08:56:04.430Z,16.44
2022-10-19T08:57:20.654Z,15.62
2022-10-19T08:58:34.363Z,16.28
2022-10-19T08:59:57.720Z,17.27
2022-10-19T09:01:37.844Z,16.59
2022-10-19T09:02:57.632Z,16.31
2022-10-19T09:04:17.327Z,16.57
2022-10-19T09:05:29.360Z,17.06
2022-10-19T09:06:38.771Z,15.82
2022-10-19T09:07:45.723Z,16.00
2022-10-19T09:08:48.227Z,15.58
2022-10-19T09:10:03.447Z,16.44
2022-10-19T09:11:08.916Z,17.44
2022-10-19T09:12:16.691Z,16.83
2022-10-19T09:14:04.145Z,18.29
2022-10-19T09:15:11.421Z,18.64
2022-10-19T09:16:19.024Z,16.67
2022-10-19T09:17:20.876Z,17.16
2022-10-19T09:18:28.876Z,17.03
2022-10-19T09:19:32.112Z,17.23
2022-10-19T09:20:39.486Z,17.03
2022-10-19T09:21:48.342Z,16.88
2022-10-19T09:23:04.483Z,17.15
2022-10-19T09:24:16.255Z,16.11
2022-10-19T09:25:20.954Z,16.12
2022-10-19T09:26:47.691Z,15.13
2022-10-19T09:29:35.362Z,15.45
2022-10-19T09:30:39.009Z,16.58
2022-10-19T09:31:45.411Z,15.12
2022-10-19T09:32:58.869Z,15.36
2022-10-19T09:34:05.625Z,16.70
2022-10-19T09:35:43.137Z,16.30
2022-10-19T09:36:51.795Z,16.00
2022-10-19T09:37:53.814Z,17.11
2022-10-19T09:38:55.469Z,15.69
2022-10-19T09:39:57.296Z,16.19
2022-10-19T09:41:07.865Z,14.81
2022-10-19T09:42:23.817Z,16.63
2022-10-19T09:43:28.179Z,15.82
2022-10-19T09:44:31.052Z,15.14
2022-10-19T09:45:43.305Z,15.28
2022-10-19T09:46:53.737Z,15.08
2022-10-19T09:47:55.385Z,16.37
2022-10-19T09:49:01.377Z,14.79
2022-10-19T09:50:09.126Z,15.58
2022-10-19T09:51:13.332Z,14.79
2022-10-19T09:52:40.056Z,15.07
2022-10-19T09:53:45.902Z,15.39
2022-10-19T09:54:59.029Z,14.23
2022-10-19T09:56:04.516Z,14.43
2022-10-19T09:57:06.246Z,13.97
2022-10-19T09:58:13.467Z,14.67
2022-10-19T09:59:23.436Z,16.08
2022-10-19T10:00:32.812Z,14.90
2022-10-19T10:01:43.014Z,15.30
2022-10-19T10:02:56.376Z,14.65
2022-10-19T10:04:30.674Z,14.58
2022-10-19T10:05:41.551Z,14.19
2022-10-19T10:06:43.723Z,14.59
2022-10-19T10:07:45.544Z,14.32
2022-10-19T10:08:50.685Z,15.00
2022-10-19T10:09:53.291Z,14.43
2022-10-19T10:11:07.198Z,14.71
2022-10-19T10:12:09.157Z,14.34
2022-10-19T10:13:20.265Z,14.37
2022-10-19T10:14:33.581Z,15.23
2022-10-19T10:15:44.519Z,14.99
2022-10-19T10:16:46.779Z,15.13
2022-10-19T10:17:49.894Z,13.88
2022-10-19T10:19:03.996Z,14.05
2022-10-19T10:20:26.925Z,13.48
2022-10-19T10:21:35.862Z,13.35
2022-10-19T10:22:37.868Z,13.97
2022-10-19T10:23:39.717Z,12.94
2022-10-19T10:24:52.405Z,12.86
2022-10-19T10:25:58.632Z,14.75
2022-10-19T10:27:03.406Z,14.28
2022-10-19T10:28:25.861Z,13.83
2022-10-19T10:29:30.014Z,14.23
2022-10-19T10:30:37.029Z,13.78
2022-10-19T10:31:38.753Z,13.76
2022-10-19T10:32:49.358Z,13.84
2022-10-19T10:34:12.308Z,13.66
2022-10-19T10:35:36.661Z,13.52
2022-10-19T10:36:38.413Z,13.95
2022-10-19T10:37:41.266Z,14.10
2022-10-19T10:38:50.208Z,13.71
2022-10-19T10:39:56.734Z,13.77
2022-10-19T10:41:07.947Z,14.08
2022-10-19T10:42:21.412Z,14.67
2022-10-19T10:43:31.279Z,14.23
2022-10-19T10:44:36.655Z,14.56
2022-10-19T10:45:41.471Z,14.50
2022-10-19T10:46:55.450Z,14.51
2022-10-19T10:47:58.201Z,14.12
2022-10-19T10:49:08.492Z,14.22
2022-10-19T10:50:20.478Z,14.13
2022-10-19T10:51:37.376Z,13.87
2022-10-19T10:53:04.823Z,14.22
2022-10-19T10:54:38.840Z,13.90
2022-10-19T10:55:40.514Z,14.43
2022-10-19T10:56:44.085Z,14.11
2022-10-19T10:57:51.355Z,13.66
2022-10-19T10:59:01.954Z,14.01
2022-10-19T11:00:11.177Z,14.13
2022-10-19T11:01:21.462Z,12.87
2022-10-19T11:02:48.898Z,13.77
2022-10-19T11:04:00.679Z,13.88
2022-10-19T11:05:33.616Z,15.21
2022-10-19T11:06:43.688Z,15.01
2022-10-19T11:07:49.988Z,14.04
2022-10-19T11:09:08.027Z,14.67
2022-10-19T11:10:26.734Z,15.04
2022-10-19T11:11:36.120Z,15.01
2022-10-19T11:12:41.952Z,14.14
2022-10-19T11:14:06.928Z,14.99
2022-10-19T11:16:35.583Z,14.55
2022-10-19T11:17:42.745Z,14.93
2022-10-19T11:18:53.764Z,15.10
2022-10-19T11:19:55.466Z,15.05
2022-10-19T11:21:13.409Z,15.95
2022-10-19T11:22:47.035Z,15.69
2022-10-19T11:24:18.809Z,15.51
2022-10-19T11:25:44.196Z,15.30
2022-10-19T11:26:45.815Z,16.25
2022-10-19T11:27:53.244Z,16.25
2022-10-19T11:28:57.568Z,16.93
2022-10-19T11:30:17.129Z,17.22
2022-10-19T11:31:47.454Z,16.79
2022-10-19T11:33:07.678Z,16.87
2022-10-19T11:34:32.594Z,17.74
2022-10-19T11:35:46.365Z,17.96
2022-10-19T11:36:48.093Z,18.24
2022-10-19T11:38:20.229Z,17.92
2022-10-19T11:39:35.461Z,16.64
2022-10-19T11:41:16.388Z,16.96
2022-10-19T11:42:34.729Z,17.40
2022-10-19T11:43:54.611Z,17.63
2022-10-19T11:45:27.689Z,17.54
2022-10-19T11:46:54.152Z,17.80
2022-10-19T11:48:20.188Z,18.22
2022-10-19T11:49:40.220Z,17.78
2022-10-19T11:50:54.184Z,18.08
2022-10-19T11:52:07.289Z,18.65
2022-10-19T11:53:23.641Z,18.47
2022-10-19T11:54:43.634Z,19.18
2022-10-19T11:55:57.218Z,18.95
2022-10-19T11:57:08.281Z,19.26
2022-10-19T11:58:47.183Z,18.66
2022-10-19T12:00:15.418Z,18.66
2022-10-19T12:01:48.070Z,19.01
2022-10-19T12:03:33.635Z,18.98
2022-10-19T12:04:44.303Z,19.84
2022-10-19T12:06:04.852Z,19.92
2022-10-19T12:07:24.792Z,19.93
2022-10-19T12:08:51.255Z,20.00
2022-10-19T12:09:55.526Z,20.70
2022-10-19T12:11:13.760Z,20.14
2022-10-19T12:12:33.486Z,20.34
2022-10-19T12:13:49.293Z,20.56
2022-10-19T12:15:01.509Z,20.48
2022-10-19T12:16:05.004Z,20.53
2022-10-19T12:17:16.004Z,20.47
2022-10-19T12:18:36.213Z,21.16
2022-10-19T12:20:03.025Z,21.70
2022-10-19T12:21:29.470Z,21.57
2022-10-19T12:22:33.328Z,21.33
2022-10-19T12:23:40.168Z,20.96
2022-10-19T12:24:41.986Z,20.77
2022-10-19T12:25:45.108Z,20.89
2022-10-19T12:26:47.775Z,21.32
2022-10-19T12:27:51.697Z,21.35
2022-10-19T12:29:03.721Z,21.54
2022-10-19T12:30:13.098Z,21.27
2022-10-19T12:31:15.518Z,21.56
2022-10-19T12:32:23.162Z,21.79
2022-10-19T12:33:36.998Z,21.62
2022-10-19T12:35:03.305Z,21.82
2022-10-19T12:36:35.788Z,22.19
2022-10-19T12:38:00.459Z,22.97
2022-10-19T12:39:50.041Z,23.37
2022-10-19T12:41:01.958Z,22.77
2022-10-19T12:42:15.249Z,23.13
2022-10-19T12:43:24.456Z,22.66
2022-10-19T12:44:38.196Z,22.64
2022-10-19T12:46:00.437Z,22.22
2022-10-19T12:47:22.554Z,21.70
2022-10-19T12:48:24.818Z,21.75
2022-10-19T12:49:26.455Z,21.80
2022-10-19T12:50:49.681Z,22.27
2022-10-19T12:51:52.182Z,21.91
2022-10-19T12:52:54.820Z,22.64
2022-10-19T12:54:09.610Z,21.81
2022-10-19T12:55:16.993Z,21.68
2022-10-19T12:56:26.191Z,21.85
2022-10-19T12:57:30.524Z,22.33
2022-10-19T12:58:47.529Z,22.04
2022-10-19T13:00:05.722Z,21.56
2022-10-19T13:01:09.938Z,23.00
2022-10-19T13:02:28.847Z,23.78
2022-10-19T13:03:36.972Z,22.09
2022-10-19T13:04:38.663Z,22.71
2022-10-19T13:05:40.518Z,22.33
2022-10-19T13:06:51.605Z,23.30
2022-10-19T13:07:53.258Z,23.55
2022-10-19T13:08:58.439Z,23.17
2022-10-19T13:10:02.968Z,21.57
2022-10-19T13:11:14.725Z,21.83
2022-10-19T13:12:19.998Z,22.04
2022-10-19T13:14:03.729Z,20.81
2022-10-19T13:15:05.923Z,23.25
2022-10-19T13:16:30.505Z,22.33
2022-10-19T13:17:37.631Z,21.35
2022-10-19T13:19:00.786Z,21.84
2022-10-19T13:20:14.554Z,22.94
2022-10-19T13:21:54.712Z,23.05
2022-10-19T13:22:59.261Z,21.41
2022-10-19T13:24:30.753Z,23.14
2022-10-19T13:25:42.098Z,21.64
2022-10-19T13:26:45.261Z,21.75
2022-10-19T13:27:49.217Z,21.96
2022-10-19T13:28:54.613Z,22.99
2022-10-19T13:29:56.316Z,24.10
2022-10-19T13:31:08.106Z,21.77
2022-10-19T13:32:44.577Z,21.81
2022-10-19T13:33:48.553Z,23.18
2022-10-19T13:34:50.305Z,22.75
2022-10-19T13:36:02.491Z,22.72
2022-10-19T13:37:04.655Z,21.98
2022-10-19T13:38:09.291Z,21.60
2022-10-19T13:39:13.774Z,21.20
2022-10-19T13:40:24.441Z,21.67
2022-10-19T13:41:38.538Z,23.02
2022-10-19T13:42:40.273Z,23.44
2022-10-19T13:44:13.970Z,22.84
2022-10-19T13:45:23.577Z,21.73
2022-10-19T13:46:31.228Z,24.83
2022-10-19T13:47:43.414Z,24.48
2022-10-19T13:49:12.874Z,24.52
2022-10-19T13:50:14.485Z,24.38
2022-10-19T13:51:37.349Z,24.44
2022-10-19T13:52:44.714Z,26.64
2022-10-19T13:53:52.335Z,25.53
2022-10-19T13:55:32.785Z,26.65
2022-10-19T13:58:17.957Z,25.28
2022-10-19T13:59:42.622Z,26.16
2022-10-19T14:00:50.264Z,24.39
2022-10-19T14:02:16.280Z,23.86
2022-10-19T14:03:34.593Z,24.11
2022-10-19T14:04:52.037Z,25.14
2022-10-19T14:06:32.705Z,24.79
2022-10-19T14:07:50.035Z,24.75
2022-10-19T14:09:04.827Z,25.67
2022-10-19T14:10:14.884Z,25.69
2022-10-19T14:11:16.572Z,25.84
2022-10-19T14:12:30.201Z,25.64
2022-10-19T14:13:32.916Z,26.50
2022-10-19T14:16:01.622Z,26.48
2022-10-19T14:17:04.419Z,26.97
2022-10-19T14:18:42.198Z,26.14
2022-10-19T14:19:45.645Z,23.45
2022-10-19T14:20:57.086Z,23.98
2022-10-19T14:22:19.101Z,24.85
2022-10-19T14:23:25.009Z,25.66
2022-10-19T14:24:36.247Z,25.70
2022-10-19T14:25:37.987Z,25.54
2022-10-19T14:26:39.665Z,25.32
2022-10-19T14:27:41.479Z,25.59
2022-10-19T14:28:43.505Z,26.79
2022-10-19T14:29:54.032Z,26.43
2022-10-19T14:31:04.771Z,26.81
2022-10-19T14:32:08.818Z,26.53
2022-10-19T14:33:14.998Z,26.16
2022-10-19T14:34:16.675Z,27.39
2022-10-19T14:35:28.407Z,27.50
2022-10-19T14:36:37.660Z,28.55
2022-10-19T14:37:43.773Z,30.06